CYHM

John C. Munro Hamilton International Airport

Hamilton, Ontario, Canada
METAR CYHM 191800Z VRB02KT 15SM FEW018 FEW250 21/13 A3006 RMK CU1CI2 CU TR SLP182 DENSITY ALT 1500FT
Observed Flight Rules
Sep-19 @ 18:00 UTC (48 minutes ago) Visual Flight Rules
Wind Visibility Clouds
Variable at 2 knots 15 miles
  • Few at 1,800' AGL
  • Few at 25,000' AGL
Temperatures Readings
Current 21°C / 70°F
Dewpoint 13°C / 55°F
Humidity 60%
Altimeter 30.06" Hg
Pressure 1018.2 hPa
Elevation 238
METAR CYHM 191800Z VRB02KT 15SM FEW018 FEW250 21/13 A3006 RMK CU1CI2 CU TR SLP182 DENSITY ALT 1500FT
Observed Flight Rules
Sep-19 @ 18:00 UTC
(48 minutes ago)
VFR
Wind Visibility
Variable at 2 knots 15 miles
Clouds
  • Few at 1,800' AGL
  • Few at 25,000' AGL
Temperature Dewpoint
21°C / 70°F 13°C / 55°F
Humidity Altimeter Pressure
60% 30.06" Hg 1018.2 hPa